createdAt,value
2022-12-25T00:01:12.907Z,98594.25
2022-12-25T00:03:39.683Z,98590.56
2022-12-25T00:06:06.892Z,98581.09
2022-12-25T00:08:34.161Z,98579.09
2022-12-25T00:11:02.953Z,98572.47
2022-12-25T00:13:29.676Z,98569.53
2022-12-25T00:15:56.546Z,98564.41
2022-12-25T00:18:24.337Z,98561.66
2022-12-25T00:21:02.926Z,98553.09
2022-12-25T00:23:29.936Z,98550.28
2022-12-25T00:25:56.638Z,98546.28
2022-12-25T00:28:24.389Z,98545.63
2022-12-25T00:30:51.946Z,98531.44
2022-12-25T00:33:18.399Z,98537.63
2022-12-25T00:35:44.992Z,98535.88
2022-12-25T00:38:11.449Z,98530.50
2022-12-25T00:40:44.412Z,98543.81
2022-12-25T00:43:11.136Z,98543.03
2022-12-25T00:45:37.735Z,98559.38
2022-12-25T00:48:04.408Z,98564.28
2022-12-25T00:50:30.878Z,98563.06
2022-12-25T00:52:57.324Z,98574.22
2022-12-25T00:55:23.696Z,98579.00
2022-12-25T00:57:50.056Z,98575.66
2022-12-25T01:00:16.943Z,98573.41
2022-12-25T01:02:43.551Z,98580.47
2022-12-25T01:05:10.338Z,98583.56
2022-12-25T01:07:36.765Z,98588.19
2022-12-25T01:10:26.561Z,98590.16
2022-12-25T01:12:53.041Z,98590.25
2022-12-25T01:15:19.633Z,98587.97
2022-12-25T01:17:46.531Z,98580.56
2022-12-25T01:20:14.840Z,98580.50
2022-12-25T01:22:41.549Z,98580.38
2022-12-25T01:25:09.210Z,98587.63
2022-12-25T01:27:35.721Z,98575.44
2022-12-25T01:30:02.311Z,98574.47
2022-12-25T01:32:28.722Z,98572.53
2022-12-25T01:34:56.385Z,98569.19
2022-12-25T01:37:24.741Z,98570.72
2022-12-25T01:39:51.525Z,98577.31
2022-12-25T01:42:20.442Z,98568.81
2022-12-25T01:44:46.858Z,98561.78
2022-12-25T01:47:15.755Z,98560.41
2022-12-25T01:49:46.632Z,98563.59
2022-12-25T01:52:21.791Z,98576.88
2022-12-25T01:54:56.046Z,98580.41
2022-12-25T01:57:27.213Z,98584.63
2022-12-25T01:59:55.541Z,98582.94
2022-12-25T02:02:22.431Z,98578.25
2022-12-25T02:05:03.943Z,98576.28
2022-12-25T02:07:35.075Z,98579.47
2022-12-25T02:10:01.737Z,98574.31
2022-12-25T02:12:31.226Z,98573.81
2022-12-25T02:15:05.658Z,98568.94
2022-12-25T02:17:57.735Z,98576.84
2022-12-25T02:20:37.738Z,98566.34
2022-12-25T02:23:11.827Z,98558.59
2022-12-25T02:26:23.197Z,98554.81
2022-12-25T02:29:22.031Z,98550.25
2022-12-25T02:31:51.687Z,98560.13
2022-12-25T02:34:25.807Z,98566.00
2022-12-25T02:37:21.160Z,98563.06
2022-12-25T02:40:00.524Z,98549.53
2022-12-25T02:43:02.212Z,98542.94
2022-12-25T02:46:02.924Z,98538.31
2022-12-25T02:48:52.103Z,98536.22
2022-12-25T02:51:40.079Z,98537.34
2022-12-25T02:54:31.185Z,98539.59
2022-12-25T02:57:18.200Z,98533.44
2022-12-25T03:00:06.975Z,98551.78
2022-12-25T03:02:52.807Z,98557.22
2022-12-25T03:05:44.579Z,98546.91
2022-12-25T03:08:16.374Z,98559.66
2022-12-25T03:11:04.897Z,98564.41
2022-12-25T03:13:38.029Z,98559.78
2022-12-25T03:16:24.659Z,98559.22
2022-12-25T03:18:51.127Z,98563.16
2022-12-25T03:21:36.208Z,98560.91
2022-12-25T03:24:20.924Z,98575.47
2022-12-25T03:26:57.339Z,98562.72
2022-12-25T03:29:49.125Z,98557.72
2022-12-25T03:32:34.152Z,98552.53
2022-12-25T03:35:44.264Z,98556.59
2022-12-25T03:38:47.605Z,98555.16
2022-12-25T03:41:41.797Z,98556.44
2022-12-25T03:44:45.829Z,98558.38
2022-12-25T03:47:51.662Z,98555.88
2022-12-25T03:50:45.936Z,98549.44
2022-12-25T03:53:42.821Z,98538.38
2022-12-25T03:56:28.750Z,98537.41
2022-12-25T03:59:22.838Z,98526.34
2022-12-25T04:02:09.728Z,98526.19
2022-12-25T04:04:55.081Z,98522.28
2022-12-25T04:07:39.840Z,98528.03
2022-12-25T04:10:25.434Z,98525.94
2022-12-25T04:13:10.359Z,98527.47
2022-12-25T04:15:55.140Z,98525.38
2022-12-25T04:18:40.564Z,98529.13
2022-12-25T04:21:25.772Z,98528.19
2022-12-25T04:24:10.619Z,98513.91
2022-12-25T04:26:55.589Z,98516.28
2022-12-25T04:29:40.455Z,98509.97
2022-12-25T04:32:25.258Z,98514.72
2022-12-25T04:35:10.437Z,98509.28
2022-12-25T04:37:36.918Z,98516.97
2022-12-25T04:40:03.768Z,98523.56
2022-12-25T04:42:30.269Z,98524.53
2022-12-25T04:44:56.707Z,98525.25
2022-12-25T04:47:23.151Z,98523.97
2022-12-25T04:49:50.202Z,98508.47
2022-12-25T04:52:16.820Z,98502.72
2022-12-25T04:54:43.257Z,98496.41
2022-12-25T04:57:09.675Z,98501.44
2022-12-25T04:59:36.070Z,98511.81
2022-12-25T05:02:02.732Z,98510.81
2022-12-25T05:04:29.218Z,98516.56
2022-12-25T05:06:55.648Z,98518.50
2022-12-25T05:09:22.053Z,98519.22
2022-12-25T05:11:48.472Z,98537.53
2022-12-25T05:14:17.477Z,98530.66
2022-12-25T05:16:44.283Z,98525.78
2022-12-25T05:19:10.674Z,98526.75
2022-12-25T05:21:37.141Z,98531.06
2022-12-25T05:24:03.712Z,98518.63
2022-12-25T05:26:30.332Z,98528.41
2022-12-25T05:28:56.925Z,98529.25
2022-12-25T05:31:23.482Z,98524.22
2022-12-25T05:33:51.349Z,98527.47
2022-12-25T05:36:18.664Z,98521.72
2022-12-25T05:38:45.123Z,98514.28
2022-12-25T05:41:11.821Z,98511.78
2022-12-25T05:43:38.234Z,98522.09
2022-12-25T05:46:09.901Z,98524.09
2022-12-25T05:48:38.066Z,98513.03
2022-12-25T05:51:10.148Z,98505.88
2022-12-25T05:53:37.106Z,98497.63
2022-12-25T05:56:06.056Z,98504.06
2022-12-25T05:58:33.591Z,98501.44
2022-12-25T06:01:00.447Z,98494.19
2022-12-25T06:03:27.819Z,98495.56
2022-12-25T06:05:54.833Z,98485.75
2022-12-25T06:08:21.832Z,98484.81
2022-12-25T06:10:48.261Z,98484.75
2022-12-25T06:13:14.856Z,98491.22
2022-12-25T06:15:41.962Z,98481.84
2022-12-25T06:18:08.522Z,98484.22
2022-12-25T06:20:34.990Z,98487.44
2022-12-25T06:23:02.118Z,98485.44
2022-12-25T06:25:28.715Z,98483.50
2022-12-25T06:27:55.077Z,98487.41
2022-12-25T06:30:21.546Z,98477.78
2022-12-25T06:32:48.089Z,98482.38
2022-12-25T06:35:14.609Z,98480.13
2022-12-25T06:37:41.100Z,98469.06
2022-12-25T06:40:08.137Z,98467.56
2022-12-25T06:42:34.640Z,98470.22
2022-12-25T06:45:01.134Z,98464.75
2022-12-25T06:47:27.614Z,98465.56
2022-12-25T06:49:54.035Z,98463.91
2022-12-25T06:52:20.477Z,98470.06
2022-12-25T06:54:47.444Z,98465.00
2022-12-25T06:57:13.861Z,98458.84
2022-12-25T06:59:40.296Z,98466.25
2022-12-25T07:02:17.589Z,98467.13
2022-12-25T07:04:44.627Z,98466.19
2022-12-25T07:07:11.473Z,98473.34
2022-12-25T07:09:42.429Z,98468.03
2022-12-25T07:12:20.448Z,98472.75
2022-12-25T07:14:50.788Z,98470.78
2022-12-25T07:17:19.054Z,98476.38
2022-12-25T07:19:48.680Z,98475.53
2022-12-25T07:22:16.247Z,98475.22
2022-12-25T07:24:42.903Z,98463.75
2022-12-25T07:27:09.376Z,98457.50
2022-12-25T07:29:35.895Z,98453.44
2022-12-25T07:32:02.502Z,98441.38
2022-12-25T07:34:28.926Z,98437.22
2022-12-25T07:36:55.383Z,98443.47
2022-12-25T07:39:21.943Z,98436.06
2022-12-25T07:41:48.450Z,98441.13
2022-12-25T07:44:15.976Z,98459.72
2022-12-25T07:46:42.967Z,98458.06
2022-12-25T07:49:10.117Z,98447.69
2022-12-25T07:51:36.520Z,98446.03
2022-12-25T07:54:03.049Z,98445.47
2022-12-25T07:56:29.521Z,98444.91
2022-12-25T07:58:55.983Z,98447.78
2022-12-25T08:01:25.084Z,98448.22
2022-12-25T08:03:59.794Z,98452.69
2022-12-25T08:06:30.200Z,98471.31
2022-12-25T08:09:08.962Z,98457.50
2022-12-25T08:11:36.141Z,98447.06
2022-12-25T08:14:05.920Z,98422.09
2022-12-25T08:16:32.599Z,98439.72
2022-12-25T08:18:59.097Z,98432.09
2022-12-25T08:21:25.584Z,98426.09
2022-12-25T08:23:51.956Z,98431.06
2022-12-25T08:26:21.361Z,98439.91
2022-12-25T08:28:48.591Z,98420.91
2022-12-25T08:31:22.104Z,98415.00
2022-12-25T08:33:50.271Z,98420.97
2022-12-25T08:36:17.855Z,98435.97
2022-12-25T08:38:44.390Z,98432.91
2022-12-25T08:41:11.947Z,98431.44
2022-12-25T08:43:39.391Z,98424.56
2022-12-25T08:46:07.079Z,98417.59
2022-12-25T08:48:34.565Z,98404.25
2022-12-25T08:51:01.785Z,98390.00
2022-12-25T08:53:28.295Z,98391.09
2022-12-25T08:56:04.482Z,98402.72
2022-12-25T08:58:31.274Z,98406.03
2022-12-25T09:00:57.783Z,98413.22
2022-12-25T09:03:24.369Z,98426.66
2022-12-25T09:05:52.486Z,98422.50
2022-12-25T09:08:19.916Z,98413.69
2022-12-25T09:10:46.438Z,98415.47
2022-12-25T09:13:12.941Z,98419.25
2022-12-25T09:15:40.022Z,98424.75
2022-12-25T09:18:06.759Z,98425.09
2022-12-25T09:20:33.246Z,98432.63
2022-12-25T09:22:59.781Z,98439.06
2022-12-25T09:25:26.293Z,98428.31
2022-12-25T09:27:52.730Z,98425.16
2022-12-25T09:30:19.319Z,98434.50
2022-12-25T09:32:45.739Z,98435.03
2022-12-25T09:35:13.980Z,98421.72
2022-12-25T09:37:40.439Z,98429.13
2022-12-25T09:40:07.851Z,98428.31
2022-12-25T09:42:34.523Z,98421.19
2022-12-25T09:45:05.915Z,98415.88
2022-12-25T09:47:35.862Z,98419.88
2022-12-25T09:50:15.635Z,98419.69
2022-12-25T09:52:46.228Z,98401.78
2022-12-25T09:55:19.841Z,98405.47
2022-12-25T09:57:52.392Z,98400.50
2022-12-25T10:00:21.669Z,98400.91
2022-12-25T10:02:51.183Z,98396.22
2022-12-25T10:05:36.254Z,98383.94
2022-12-25T10:08:28.798Z,98385.16
2022-12-25T10:11:01.914Z,98374.06
2022-12-25T10:14:03.191Z,98360.00
2022-12-25T10:16:54.124Z,98349.19
2022-12-25T10:19:42.089Z,98339.09
2022-12-25T10:22:30.064Z,98339.06
2022-12-25T10:24:59.818Z,98342.69
2022-12-25T10:27:36.697Z,98347.13
2022-12-25T10:30:16.606Z,98347.66
2022-12-25T10:32:45.351Z,98329.84
2022-12-25T10:35:18.904Z,98329.34
2022-12-25T10:38:07.489Z,98304.22
2022-12-25T10:40:46.873Z,98308.94
2022-12-25T10:43:21.148Z,98327.50
2022-12-25T10:45:49.431Z,98328.00
2022-12-25T10:48:21.794Z,98327.16
2022-12-25T10:50:49.090Z,98336.13
2022-12-25T10:53:21.813Z,98322.59
2022-12-25T10:56:00.629Z,98321.38
2022-12-25T10:58:28.163Z,98339.28
2022-12-25T11:00:58.209Z,98332.50
2022-12-25T11:03:29.224Z,98330.69
2022-12-25T11:05:56.179Z,98323.59
2022-12-25T11:08:25.523Z,98321.47
2022-12-25T11:10:57.590Z,98327.84
2022-12-25T11:13:27.198Z,98319.25
2022-12-25T11:16:35.257Z,98307.22
2022-12-25T11:19:02.945Z,98306.31
2022-12-25T11:21:36.733Z,98299.84
2022-12-25T11:24:06.004Z,98301.50
2022-12-25T11:26:46.885Z,98294.63
2022-12-25T11:29:37.522Z,98293.19
2022-12-25T11:32:11.493Z,98289.44
2022-12-25T11:34:45.184Z,98300.09
2022-12-25T11:37:17.528Z,98296.38
2022-12-25T11:39:44.176Z,98281.66
2022-12-25T11:42:33.056Z,98280.59
2022-12-25T11:45:12.945Z,98277.84
2022-12-25T11:47:48.513Z,98282.84
2022-12-25T11:50:32.860Z,98265.38
2022-12-25T11:53:21.890Z,98245.88
2022-12-25T11:55:56.782Z,98243.97
2022-12-25T11:58:44.615Z,98231.59
2022-12-25T12:01:40.254Z,98227.75
2022-12-25T12:04:14.380Z,98226.25
2022-12-25T12:07:03.703Z,98216.38
2022-12-25T12:09:48.451Z,98195.78
2022-12-25T12:12:22.215Z,98200.75
2022-12-25T12:15:00.659Z,98191.56
2022-12-25T12:17:27.146Z,98214.22
2022-12-25T12:19:53.609Z,98211.19
2022-12-25T12:22:27.490Z,98204.00
2022-12-25T12:25:06.966Z,98206.66
2022-12-25T12:27:37.483Z,98211.78
2022-12-25T12:30:05.932Z,98207.03
2022-12-25T12:32:50.681Z,98201.34
2022-12-25T12:35:25.745Z,98200.66
2022-12-25T12:38:07.022Z,98194.03
2022-12-25T12:40:44.481Z,98180.53
2022-12-25T12:43:42.623Z,98174.84
2022-12-25T12:46:28.051Z,98179.88
2022-12-25T12:49:21.108Z,98183.38
2022-12-25T12:51:48.198Z,98169.88
2022-12-25T12:54:22.274Z,98170.16
2022-12-25T12:56:57.998Z,98167.00
2022-12-25T12:59:25.796Z,98169.25
2022-12-25T13:02:27.318Z,98174.72
2022-12-25T13:05:00.930Z,98157.59
2022-12-25T13:07:44.748Z,98158.59
2022-12-25T13:10:31.751Z,98170.94
2022-12-25T13:13:02.950Z,98171.97
2022-12-25T13:15:34.158Z,98186.50
2022-12-25T13:18:07.177Z,98172.13
2022-12-25T13:20:50.959Z,98167.56
2022-12-25T13:23:30.740Z,98157.75
2022-12-25T13:25:59.993Z,98165.31
2022-12-25T13:28:37.400Z,98153.78
2022-12-25T13:31:12.015Z,98152.41
2022-12-25T13:33:40.250Z,98155.03
2022-12-25T13:36:12.293Z,98150.13
2022-12-25T13:38:44.561Z,98162.72
2022-12-25T13:41:29.597Z,98158.47
2022-12-25T13:43:59.329Z,98150.50
2022-12-25T13:46:27.274Z,98140.84
2022-12-25T13:49:01.443Z,98139.84
2022-12-25T13:51:28.677Z,98129.56
2022-12-25T13:54:05.559Z,98142.41
2022-12-25T13:56:34.146Z,98134.75
2022-12-25T13:59:00.799Z,98151.63
2022-12-25T14:01:28.367Z,98157.88
2022-12-25T14:03:55.161Z,98153.94
2022-12-25T14:06:27.520Z,98159.22
2022-12-25T14:08:58.873Z,98142.66
2022-12-25T14:11:28.261Z,98148.03
2022-12-25T14:13:59.870Z,98149.78
2022-12-25T14:16:27.127Z,98131.66
2022-12-25T14:18:58.756Z,98143.09
2022-12-25T14:21:35.182Z,98154.09
2022-12-25T14:24:02.071Z,98136.31
2022-12-25T14:26:31.831Z,98138.59
2022-12-25T14:29:17.263Z,98150.22
2022-12-25T14:31:46.314Z,98145.50
2022-12-25T14:34:22.611Z,98150.03
2022-12-25T14:36:50.619Z,98142.66
2022-12-25T14:39:29.605Z,98141.09
2022-12-25T14:41:56.538Z,98139.50
2022-12-25T14:44:40.546Z,98139.28
2022-12-25T14:47:16.112Z,98138.09
2022-12-25T14:49:43.101Z,98146.16
2022-12-25T14:52:18.317Z,98150.75
2022-12-25T14:55:02.196Z,98150.19
2022-12-25T14:57:33.243Z,98148.75
2022-12-25T15:00:03.844Z,98144.97
2022-12-25T15:02:39.898Z,98158.75
2022-12-25T15:05:23.788Z,98143.97
2022-12-25T15:08:02.696Z,98140.75
2022-12-25T15:10:59.140Z,98134.47
2022-12-25T15:13:19.117Z,98142.84
2022-12-25T15:16:04.149Z,98142.66
2022-12-25T15:18:35.477Z,98149.44
2022-12-25T15:21:02.570Z,98143.81
2022-12-25T15:23:28.968Z,98142.78
2022-12-25T15:25:55.436Z,98144.97
2022-12-25T15:28:21.958Z,98143.75
2022-12-25T15:30:49.781Z,98139.94
2022-12-25T15:33:18.453Z,98136.47
2022-12-25T15:35:45.467Z,98137.59
2022-12-25T15:38:13.139Z,98139.38
2022-12-25T15:40:40.592Z,98138.31
2022-12-25T15:43:14.323Z,98139.63
2022-12-25T15:45:47.451Z,98150.94
2022-12-25T15:48:13.890Z,98151.31
2022-12-25T15:50:40.318Z,98147.88
2022-12-25T15:53:06.790Z,98160.56
2022-12-25T15:55:34.190Z,98160.75
2022-12-25T15:58:00.679Z,98147.41
2022-12-25T16:00:27.329Z,98149.41
2022-12-25T16:02:54.042Z,98151.56
2022-12-25T16:05:21.923Z,98147.72
2022-12-25T16:07:49.103Z,98140.84
2022-12-25T16:10:18.447Z,98138.22
2022-12-25T16:12:46.855Z,98124.00
2022-12-25T16:15:15.495Z,98141.66
2022-12-25T16:17:42.073Z,98140.38
2022-12-25T16:20:09.552Z,98135.03
2022-12-25T16:22:39.953Z,98114.41
2022-12-25T16:25:15.690Z,98118.25
2022-12-25T16:27:42.543Z,98113.22
2022-12-25T16:30:11.618Z,98117.06
2022-12-25T16:32:38.287Z,98108.06
2022-12-25T16:35:05.225Z,98110.41
2022-12-25T16:37:31.811Z,98115.41
2022-12-25T16:39:58.213Z,98119.06
2022-12-25T16:42:24.703Z,98129.25
2022-12-25T16:44:51.147Z,98122.25
2022-12-25T16:47:17.830Z,98134.22
2022-12-25T16:49:44.340Z,98139.75
2022-12-25T16:52:10.830Z,98140.59
2022-12-25T16:54:37.293Z,98140.72
2022-12-25T16:57:03.776Z,98146.41
2022-12-25T16:59:30.289Z,98151.59
2022-12-25T17:01:56.952Z,98155.44
2022-12-25T17:04:23.553Z,98151.59
2022-12-25T17:06:49.998Z,98149.94
2022-12-25T17:09:16.709Z,98149.09
2022-12-25T17:11:43.125Z,98145.91
2022-12-25T17:14:10.733Z,98145.25
2022-12-25T17:16:38.196Z,98131.25
2022-12-25T17:19:12.037Z,98128.75
2022-12-25T17:21:38.812Z,98124.25
2022-12-25T17:24:05.778Z,98132.75
2022-12-25T17:26:33.048Z,98123.41
2022-12-25T17:28:59.928Z,98120.59
2022-12-25T17:31:27.177Z,98132.25
2022-12-25T17:33:53.774Z,98121.09
2022-12-25T17:36:21.565Z,98126.25
2022-12-25T17:38:48.616Z,98131.75
2022-12-25T17:41:16.428Z,98134.28
2022-12-25T17:43:45.508Z,98129.25
2022-12-25T17:46:16.055Z,98115.41
2022-12-25T17:48:43.205Z,98119.91
2022-12-25T17:51:12.983Z,98122.88
2022-12-25T17:53:41.542Z,98114.88
2022-12-25T17:56:09.715Z,98110.41
2022-12-25T17:58:37.161Z,98111.41
2022-12-25T18:01:08.727Z,98106.41
2022-12-25T18:03:36.754Z,98113.56
2022-12-25T18:06:08.347Z,98109.91
2022-12-25T18:08:39.337Z,98104.25
2022-12-25T18:11:08.978Z,98109.50
2022-12-25T18:13:35.894Z,98105.16
2022-12-25T18:16:04.701Z,98109.28
2022-12-25T18:18:31.756Z,98101.25
2022-12-25T18:20:58.276Z,98096.69
2022-12-25T18:23:24.799Z,98094.59
2022-12-25T18:25:51.441Z,98096.06
2022-12-25T18:28:17.878Z,98095.22
2022-12-25T18:30:46.003Z,98095.03
2022-12-25T18:33:12.906Z,98099.00
2022-12-25T18:35:41.455Z,98093.59
2022-12-25T18:38:09.289Z,98097.47
2022-12-25T18:40:43.799Z,98091.47
2022-12-25T18:43:10.821Z,98094.97
2022-12-25T18:45:37.686Z,98098.28
2022-12-25T18:48:06.404Z,98099.88
2022-12-25T18:50:34.689Z,98094.59
2022-12-25T18:53:01.986Z,98101.28
2022-12-25T18:55:28.666Z,98100.63
2022-12-25T18:57:55.697Z,98097.97
2022-12-25T19:00:22.921Z,98087.97
2022-12-25T19:02:50.257Z,98084.28
2022-12-25T19:05:17.241Z,98080.06
2022-12-25T19:07:43.817Z,98084.63
2022-12-25T19:10:10.472Z,98082.25
2022-12-25T19:12:37.087Z,98076.41
2022-12-25T19:15:03.799Z,98082.63
2022-12-25T19:17:32.114Z,98083.44
2022-12-25T19:19:58.937Z,98078.56
2022-12-25T19:22:25.375Z,98080.94
2022-12-25T19:24:51.816Z,98082.25
2022-12-25T19:27:18.288Z,98098.59
2022-12-25T19:29:44.909Z,98098.78
2022-12-25T19:32:11.331Z,98091.63
2022-12-25T19:34:37.975Z,98092.94
2022-12-25T19:37:04.853Z,98088.81
2022-12-25T19:39:31.385Z,98085.13
2022-12-25T19:41:58.005Z,98067.28
2022-12-25T19:44:24.593Z,98055.03
2022-12-25T19:46:50.984Z,98073.59
2022-12-25T19:49:17.516Z,98070.91
2022-12-25T19:51:46.203Z,98078.94
2022-12-25T19:54:15.705Z,98087.09
2022-12-25T19:56:43.155Z,98068.56
2022-12-25T19:59:11.636Z,98067.66
2022-12-25T20:01:39.038Z,98062.31
2022-12-25T20:04:08.026Z,98061.94
2022-12-25T20:06:35.926Z,98058.97
2022-12-25T20:09:06.154Z,98076.00
2022-12-25T20:11:34.090Z,98064.66
2022-12-25T20:14:00.784Z,98075.69
2022-12-25T20:16:27.610Z,98070.47
2022-12-25T20:18:54.355Z,98062.19
2022-12-25T20:21:22.308Z,98064.31
2022-12-25T20:23:51.113Z,98071.63
2022-12-25T20:26:19.920Z,98078.16
2022-12-25T20:28:46.577Z,98078.38
2022-12-25T20:31:22.527Z,98078.88
2022-12-25T20:33:49.401Z,98082.41
2022-12-25T20:36:16.412Z,98066.59
2022-12-25T20:38:42.910Z,98082.31
2022-12-25T20:41:30.736Z,98093.16
2022-12-25T20:43:57.926Z,98083.16
2022-12-25T20:46:25.954Z,98095.38
2022-12-25T20:48:53.094Z,98096.19
2022-12-25T20:51:22.667Z,98096.00
2022-12-25T20:53:49.709Z,98097.22
2022-12-25T20:56:18.221Z,98096.72
2022-12-25T20:58:45.133Z,98095.88
2022-12-25T21:01:17.501Z,98114.56
2022-12-25T21:03:45.171Z,98099.91
2022-12-25T21:06:12.811Z,98094.91
2022-12-25T21:08:41.176Z,98094.41
2022-12-25T21:11:08.577Z,98100.41
2022-12-25T21:13:38.223Z,98105.72
2022-12-25T21:16:07.166Z,98104.91
2022-12-25T21:18:33.893Z,98117.91
2022-12-25T21:21:05.425Z,98106.41
2022-12-25T21:23:32.375Z,98102.75
2022-12-25T21:25:58.834Z,98102.56
2022-12-25T21:28:30.166Z,98120.28
2022-12-25T21:31:05.632Z,98126.94
2022-12-25T21:33:51.297Z,98128.94
2022-12-25T21:36:32.201Z,98139.25
2022-12-25T21:39:01.265Z,98138.78
2022-12-25T21:41:29.675Z,98141.09
2022-12-25T21:43:56.907Z,98131.94
2022-12-25T21:46:24.337Z,98141.44
2022-12-25T21:48:51.253Z,98140.25
2022-12-25T21:51:45.519Z,98148.63
2022-12-25T21:54:12.955Z,98153.47
2022-12-25T21:56:44.565Z,98155.44
2022-12-25T21:59:15.168Z,98154.44
2022-12-25T22:01:41.762Z,98139.25
2022-12-25T22:04:09.390Z,98150.78
2022-12-25T22:06:54.507Z,98151.47
2022-12-25T22:09:21.869Z,98154.97
2022-12-25T22:12:07.548Z,98153.97
2022-12-25T22:14:55.338Z,98153.47
2022-12-25T22:17:47.187Z,98150.63
2022-12-25T22:20:16.665Z,98155.63
2022-12-25T22:22:44.090Z,98159.78
2022-12-25T22:25:11.986Z,98159.94
2022-12-25T22:27:39.894Z,98153.28
2022-12-25T22:30:09.481Z,98158.28
2022-12-25T22:32:38.643Z,98161.47
2022-12-25T22:35:05.453Z,98164.66
2022-12-25T22:37:32.047Z,98165.31
2022-12-25T22:39:58.720Z,98161.31
2022-12-25T22:42:25.166Z,98165.63
2022-12-25T22:44:51.540Z,98155.78
2022-12-25T22:47:18.210Z,98167.66
2022-12-25T22:49:44.665Z,98176.31
2022-12-25T22:52:11.246Z,98185.50
2022-12-25T22:54:40.204Z,98181.16
2022-12-25T22:57:09.878Z,98182.31
2022-12-25T22:59:38.839Z,98186.16
2022-12-25T23:02:05.382Z,98182.50
2022-12-25T23:04:34.874Z,98171.66
2022-12-25T23:07:06.449Z,98177.47
2022-12-25T23:09:34.919Z,98190.47
2022-12-25T23:12:06.907Z,98189.81
2022-12-25T23:14:41.827Z,98175.66
2022-12-25T23:17:31.830Z,98171.97
2022-12-25T23:20:18.821Z,98171.63
2022-12-25T23:23:05.405Z,98153.59
2022-12-25T23:25:52.436Z,98152.94
2022-12-25T23:28:38.956Z,98166.13
2022-12-25T23:31:09.293Z,98162.44
2022-12-25T23:33:35.749Z,98153.09
2022-12-25T23:36:02.265Z,98168.63
2022-12-25T23:38:28.958Z,98170.47
2022-12-25T23:40:55.400Z,98168.94
2022-12-25T23:43:21.859Z,98162.75
2022-12-25T23:45:48.554Z,98159.25
2022-12-25T23:48:15.406Z,98164.28
2022-12-25T23:50:41.822Z,98164.59
2022-12-25T23:53:10.090Z,98164.81
2022-12-25T23:55:36.795Z,98173.63
2022-12-25T23:58:04.272Z,98171.94
